Time;durP1;ratioP1;P1;durP2;ratioP2;P2;SDS_P1;SDS_P2;PMS_P1;PMS_P2;Temp;Humidity;BMP_temperature;BMP_pressure;BME280_temperature;BME280_humidity;BME280_pressure;Samples;Min_cycle;Max_cycle;Signal;HPM_P1;HPM_P2
2022/06/04 00:00:31;;;;;;;;;;;18.30;60.00;;;;;;4125569;28;20781;-48
2022/06/04 00:02:33;;;;;;;;;;;18.40;59.60;;;;;;4125549;28;20389;-51
2022/06/04 00:04:34;;;;;;;;;;;18.40;59.70;;;;;;4130502;28;20361;-50
2022/06/04 00:06:36;;;;;;;;;;;18.30;59.80;;;;;;4123332;28;19945;-52
2022/06/04 00:08:38;;;;;;;;;;;18.40;59.50;;;;;;4121203;28;20329;-47
2022/06/04 00:15:30;;;;;;;;;;;18.80;59.00;;;;;;4121253;28;20496;-46
2022/06/04 00:17:31;;;;;;;;;;;18.90;58.30;;;;;;4105235;28;20390;-48
2022/06/04 00:19:34;;;;;;;;;;;18.80;58.40;;;;;;4125427;28;19938;-46
2022/06/04 00:21:35;;;;;;;;;;;18.80;58.50;;;;;;4126106;28;19928;-50
2022/06/04 00:23:37;;;;;;;;;;;19.20;58.00;;;;;;4119384;28;19929;-47
2022/06/04 00:25:41;;;;;;;;;;;19.40;57.20;;;;;;4122027;28;19931;-47
2022/06/04 00:27:42;;;;;;;;;;;19.40;57.20;;;;;;4131266;28;19959;-45
2022/06/04 00:29:44;;;;;;;;;;;19.20;57.30;;;;;;4121415;28;20066;-51
2022/06/04 00:31:46;;;;;;;;;;;19.30;57.60;;;;;;4126428;28;20069;-50
2022/06/04 00:33:48;;;;;;;;;;;19.50;57.10;;;;;;4131939;28;19933;-46
2022/06/04 00:35:50;;;;;;;;;;;19.50;56.80;;;;;;4126076;28;20070;-48
2022/06/04 00:37:52;;;;;;;;;;;19.40;57.20;;;;;;4126833;28;19935;-48
2022/06/04 00:39:54;;;;;;;;;;;19.40;57.00;;;;;;4123354;28;20211;-49
2022/06/04 00:41:55;;;;;;;;;;;19.80;56.70;;;;;;4105337;28;20908;-45
2022/06/04 00:44:03;;;;;;;;;;;20.00;55.80;;;;;;4122894;28;20351;-46
2022/06/04 00:46:23;;;;;;;;;;;19.90;55.90;;;;;;4120859;28;19936;-45
2022/06/04 00:48:24;;;;;;;;;;;19.80;56.00;;;;;;4115897;28;19990;-49
2022/06/04 00:50:27;;;;;;;;;;;19.90;56.10;;;;;;4102537;28;20584;-46
2022/06/04 00:52:29;;;;;;;;;;;20.00;55.60;;;;;;4120200;28;20402;-46
2022/06/04 00:54:31;;;;;;;;;;;19.90;55.60;;;;;;4127858;28;21139;-49
2022/06/04 00:56:50;;;;;;;;;;;19.80;55.60;;;;;;4125783;28;19924;-50
2022/06/04 00:58:52;;;;;;;;;;;19.90;55.70;;;;;;4130077;28;19949;-53
2022/06/04 01:00:56;;;;;;;;;;;20.00;55.20;;;;;;4130171;28;19936;-52
2022/06/04 01:03:06;;;;;;;;;;;19.80;55.40;;;;;;4130206;28;20492;-47
2022/06/04 01:05:29;;;;;;;;;;;19.70;55.30;;;;;;4130037;28;20216;-47
2022/06/04 01:07:49;;;;;;;;;;;20.00;55.20;;;;;;4127608;28;20020;-50
2022/06/04 01:10:23;;;;;;;;;;;20.00;54.90;;;;;;4121647;28;20015;-50
2022/06/04 01:12:28;;;;;;;;;;;19.90;55.00;;;;;;4096285;28;19987;-45
2022/06/04 01:14:49;;;;;;;;;;;19.90;55.30;;;;;;4131810;28;19998;-48
2022/06/04 01:16:55;;;;;;;;;;;20.00;55.00;;;;;;4128103;28;19928;-50
2022/06/04 01:19:01;;;;;;;;;;;19.90;55.20;;;;;;4134670;28;19924;-49
2022/06/04 01:21:16;;;;;;;;;;;19.80;55.20;;;;;;4122684;28;20242;-48
2022/06/04 01:23:36;;;;;;;;;;;20.10;54.30;;;;;;4132888;28;19928;-44
2022/06/04 01:25:56;;;;;;;;;;;20.20;53.80;;;;;;4127650;28;20859;-48
2022/06/04 01:27:58;;;;;;;;;;;20.10;54.00;;;;;;4122608;28;19932;-46
2022/06/04 01:30:06;;;;;;;;;;;20.10;54.30;;;;;;4125621;28;19929;-49
2022/06/04 01:32:18;;;;;;;;;;;20.30;54.20;;;;;;4124678;28;19994;-49
2022/06/04 01:34:29;;;;;;;;;;;20.50;53.40;;;;;;4120117;28;20050;-48
2022/06/04 01:36:48;;;;;;;;;;;20.40;53.60;;;;;;4118058;28;20008;-47
2022/06/04 01:38:50;;;;;;;;;;;20.30;53.90;;;;;;4127208;28;20017;-49
2022/06/04 01:41:07;;;;;;;;;;;20.40;54.00;;;;;;4114397;28;20845;-51
2022/06/04 01:43:11;;;;;;;;;;;20.60;53.60;;;;;;4125562;28;19929;-56
2022/06/04 01:45:15;;;;;;;;;;;20.60;53.30;;;;;;4119860;28;19928;-50
2022/06/04 01:47:17;;;;;;;;;;;20.40;53.40;;;;;;4116149;28;20467;-53
2022/06/04 01:49:45;;;;;;;;;;;20.40;53.30;;;;;;4122414;28;20303;-53
2022/06/04 01:51:48;;;;;;;;;;;20.50;53.30;;;;;;4116361;28;20476;-51
2022/06/04 01:53:54;;;;;;;;;;;20.50;53.10;;;;;;4110259;28;19929;-47
2022/06/04 01:55:58;;;;;;;;;;;20.40;53.00;;;;;;4121610;28;19955;-45
2022/06/04 01:58:05;;;;;;;;;;;20.40;53.20;;;;;;4128624;28;19929;-47
2022/06/04 02:00:26;;;;;;;;;;;20.70;52.90;;;;;;4122772;28;19967;-46
2022/06/04 02:02:31;;;;;;;;;;;20.70;52.50;;;;;;4119892;28;19928;-49
2022/06/04 02:04:36;;;;;;;;;;;20.60;52.70;;;;;;4125145;28;20906;-45
2022/06/04 02:06:40;;;;;;;;;;;20.50;53.00;;;;;;4111715;28;20394;-52
2022/06/04 02:08:55;;;;;;;;;;;20.70;53.00;;;;;;4113479;28;20006;-46
2022/06/04 02:11:08;;;;;;;;;;;20.70;52.70;;;;;;4121744;28;19955;-45
2022/06/04 02:13:11;;;;;;;;;;;20.60;52.50;;;;;;4118716;28;19951;-50
2022/06/04 02:15:17;;;;;;;;;;;20.50;52.70;;;;;;4117137;28;20665;-46
2022/06/04 02:17:21;;;;;;;;;;;20.80;52.60;;;;;;4121670;28;19924;-45
2022/06/04 02:19:23;;;;;;;;;;;20.90;52.10;;;;;;4121689;28;19929;-47
2022/06/04 02:21:25;;;;;;;;;;;20.80;52.20;;;;;;4126165;28;19990;-47
2022/06/04 02:23:29;;;;;;;;;;;20.70;52.50;;;;;;4122708;28;20869;-46
2022/06/04 02:25:31;;;;;;;;;;;20.80;52.80;;;;;;4125979;28;19986;-51
2022/06/04 02:27:33;;;;;;;;;;;21.00;52.40;;;;;;4123903;28;20456;-49
2022/06/04 02:29:35;;;;;;;;;;;20.90;52.20;;;;;;4121862;28;20041;-51
2022/06/04 02:31:40;;;;;;;;;;;20.80;52.50;;;;;;4109400;28;20145;-51
2022/06/04 02:33:44;;;;;;;;;;;20.70;52.90;;;;;;4117890;28;21130;-48
2022/06/04 02:35:53;;;;;;;;;;;21.00;52.70;;;;;;4122901;28;20324;-46
2022/06/04 02:38:01;;;;;;;;;;;21.10;52.30;;;;;;4118139;28;20043;-45
2022/06/04 02:40:21;;;;;;;;;;;21.00;52.40;;;;;;4122783;28;20040;-48
2022/06/04 02:42:38;;;;;;;;;;;20.90;53.50;;;;;;4118837;28;19982;-49
2022/06/04 02:44:44;;;;;;;;;;;21.00;53.60;;;;;;4110923;28;19978;-50
2022/06/04 02:46:51;;;;;;;;;;;21.00;53.40;;;;;;4116888;28;20216;-51
2022/06/04 02:49:09;;;;;;;;;;;20.80;53.60;;;;;;4112504;28;19985;-51
2022/06/04 02:51:20;;;;;;;;;;;20.90;53.60;;;;;;4117634;28;20016;-53
2022/06/04 02:53:22;;;;;;;;;;;20.90;53.40;;;;;;4109616;28;19990;-47
2022/06/04 02:55:26;;;;;;;;;;;20.80;53.40;;;;;;4120691;28;20551;-45
2022/06/04 02:57:30;;;;;;;;;;;20.90;53.40;;;;;;4126363;28;19928;-49
2022/06/04 02:59:34;;;;;;;;;;;21.20;52.90;;;;;;4109666;28;21149;-49
2022/06/04 03:01:41;;;;;;;;;;;21.20;52.60;;;;;;4117956;28;19924;-48
2022/06/04 03:03:43;;;;;;;;;;;21.10;52.70;;;;;;4111022;28;20002;-46
2022/06/04 03:06:01;;;;;;;;;;;21.00;53.00;;;;;;4123441;28;20650;-52
2022/06/04 03:08:04;;;;;;;;;;;21.10;52.80;;;;;;4121841;28;19929;-49
2022/06/04 03:10:09;;;;;;;;;;;21.10;52.80;;;;;;4125257;28;21127;-49
2022/06/04 03:12:12;;;;;;;;;;;21.00;52.90;;;;;;4122735;28;21789;-49
2022/06/04 03:14:14;;;;;;;;;;;20.90;53.10;;;;;;4117936;28;19962;-46
2022/06/04 03:16:16;;;;;;;;;;;20.80;53.40;;;;;;4122715;28;20415;-52
2022/06/04 03:18:18;;;;;;;;;;;20.60;53.70;;;;;;4121636;28;20716;-46
2022/06/04 03:20:22;;;;;;;;;;;20.60;53.90;;;;;;4115789;28;19967;-47
2022/06/04 03:22:23;;;;;;;;;;;20.50;54.10;;;;;;4121930;28;20035;-48
2022/06/04 03:24:25;;;;;;;;;;;20.40;54.20;;;;;;4110670;28;20646;-46
2022/06/04 03:26:26;;;;;;;;;;;20.40;54.40;;;;;;4111037;28;20022;-45
2022/06/04 03:28:28;;;;;;;;;;;20.30;54.40;;;;;;4122173;28;20033;-46
2022/06/04 03:30:30;;;;;;;;;;;20.30;54.70;;;;;;4114130;28;19928;-50
2022/06/04 03:32:31;;;;;;;;;;;20.20;54.60;;;;;;4102664;28;19925;-46
2022/06/04 03:34:33;;;;;;;;;;;20.10;54.70;;;;;;4105140;28;19929;-46
2022/06/04 03:36:35;;;;;;;;;;;20.10;54.80;;;;;;4121072;28;20413;-48
2022/06/04 03:38:37;;;;;;;;;;;20.10;55.00;;;;;;4116070;28;19928;-47
2022/06/04 03:40:39;;;;;;;;;;;20.10;55.00;;;;;;4117138;28;20967;-44
2022/06/04 03:42:41;;;;;;;;;;;20.00;55.20;;;;;;4117490;28;20441;-47
2022/06/04 03:44:46;;;;;;;;;;;20.00;55.30;;;;;;4117217;28;20233;-47
2022/06/04 03:46:48;;;;;;;;;;;19.90;55.70;;;;;;4117801;28;19932;-46
2022/06/04 03:48:49;;;;;;;;;;;19.90;56.00;;;;;;4128337;28;19936;-47
2022/06/04 03:50:51;;;;;;;;;;;19.90;56.00;;;;;;4131203;28;20175;-48
2022/06/04 03:52:53;;;;;;;;;;;19.90;55.90;;;;;;4122135;28;19925;-47
2022/06/04 03:54:55;;;;;;;;;;;19.90;55.90;;;;;;4124367;28;19925;-49
2022/06/04 03:57:37;;;;;;;;;;;19.80;55.80;;;;;;4120933;28;20084;-51
2022/06/04 03:59:17;;;;;;;;;;;19.80;55.90;;;;;;4111798;28;19954;-52
2022/06/04 04:01:21;;;;;;;;;;;19.80;56.00;;;;;;4123865;28;20022;-51
2022/06/04 04:03:23;;;;;;;;;;;19.80;55.90;;;;;;4114595;28;20375;-48
2022/06/04 04:05:32;;;;;;;;;;;19.80;56.00;;;;;;4109380;28;19967;-51
2022/06/04 04:07:34;;;;;;;;;;;19.80;56.30;;;;;;4110232;28;19940;-51
2022/06/04 04:09:36;;;;;;;;;;;19.80;56.30;;;;;;4118448;28;20429;-45
2022/06/04 04:11:37;;;;;;;;;;;19.70;56.10;;;;;;4106036;28;20535;-52
2022/06/04 04:13:39;;;;;;;;;;;19.70;56.10;;;;;;4115925;28;20703;-49
2022/06/04 04:15:41;;;;;;;;;;;19.70;56.90;;;;;;4097730;28;19948;-47
2022/06/04 04:17:43;;;;;;;;;;;19.70;56.20;;;;;;4115600;28;20015;-49
2022/06/04 04:19:44;;;;;;;;;;;19.70;56.20;;;;;;4121484;28;19928;-46
2022/06/04 04:21:46;;;;;;;;;;;19.70;56.30;;;;;;4127082;28;19925;-46
2022/06/04 04:23:48;;;;;;;;;;;19.70;56.30;;;;;;4111047;28;19932;-49
2022/06/04 04:25:50;;;;;;;;;;;19.70;56.50;;;;;;4114548;28;19928;-45
2022/06/04 04:27:52;;;;;;;;;;;19.70;56.60;;;;;;4121926;28;19975;-51
2022/06/04 04:29:53;;;;;;;;;;;19.70;56.80;;;;;;4125266;28;20376;-47
2022/06/04 04:31:55;;;;;;;;;;;19.70;56.70;;;;;;4119928;28;20330;-48
2022/06/04 04:33:57;;;;;;;;;;;19.70;56.50;;;;;;4129274;28;19929;-47
2022/06/04 04:35:59;;;;;;;;;;;19.70;56.60;;;;;;4128119;28;19950;-49
2022/06/04 04:38:01;;;;;;;;;;;19.70;56.70;;;;;;4117163;28;20413;-53
2022/06/04 04:40:04;;;;;;;;;;;19.70;56.90;;;;;;4121665;28;19944;-46
2022/06/04 04:42:05;;;;;;;;;;;19.70;56.90;;;;;;4127609;28;19929;-45
2022/06/04 04:44:07;;;;;;;;;;;19.80;56.90;;;;;;4106911;28;20494;-46
2022/06/04 04:46:11;;;;;;;;;;;19.80;56.80;;;;;;4101126;28;20009;-55
2022/06/04 04:48:14;;;;;;;;;;;19.80;56.70;;;;;;4132368;28;20686;-50
2022/06/04 04:50:27;;;;;;;;;;;19.80;56.80;;;;;;4130545;28;20693;-52
2022/06/04 04:52:28;;;;;;;;;;;19.80;56.90;;;;;;4115278;28;20243;-52
2022/06/04 04:54:30;;;;;;;;;;;19.80;56.70;;;;;;4117128;28;20386;-46
2022/06/04 04:56:32;;;;;;;;;;;19.80;56.40;;;;;;4113461;28;20548;-52
2022/06/04 04:58:34;;;;;;;;;;;19.80;55.90;;;;;;4124375;28;20324;-49
2022/06/04 05:00:35;;;;;;;;;;;19.80;55.80;;;;;;4114940;28;20233;-48
2022/06/04 05:02:37;;;;;;;;;;;19.80;55.70;;;;;;4143661;28;20545;-51
2022/06/04 05:04:39;;;;;;;;;;;19.80;55.60;;;;;;4127573;28;20461;-48
2022/06/04 05:06:41;;;;;;;;;;;19.70;55.80;;;;;;4118322;28;19928;-46
2022/06/04 05:08:42;;;;;;;;;;;19.70;55.60;;;;;;4122921;28;20298;-50
2022/06/04 05:10:44;;;;;;;;;;;19.70;55.70;;;;;;4132719;28;20556;-49
2022/06/04 05:12:46;;;;;;;;;;;19.70;55.70;;;;;;4125486;28;19929;-50
2022/06/04 05:14:47;;;;;;;;;;;19.60;55.60;;;;;;4124103;28;20473;-49
2022/06/04 05:16:49;;;;;;;;;;;19.60;55.80;;;;;;4131695;28;20145;-49
2022/06/04 05:18:51;;;;;;;;;;;19.60;55.70;;;;;;4120516;28;19929;-51
2022/06/04 05:20:53;;;;;;;;;;;19.60;55.80;;;;;;4120849;28;19929;-53
2022/06/04 05:22:54;;;;;;;;;;;19.60;56.00;;;;;;4128749;28;20219;-48
2022/06/04 05:24:56;;;;;;;;;;;19.50;55.90;;;;;;4121223;28;20586;-51
2022/06/04 05:26:58;;;;;;;;;;;19.50;55.90;;;;;;4124221;28;20044;-51
2022/06/04 05:29:00;;;;;;;;;;;19.40;55.80;;;;;;4134255;28;19928;-50
2022/06/04 05:31:02;;;;;;;;;;;19.40;55.70;;;;;;4128546;28;20828;-48
2022/06/04 05:33:04;;;;;;;;;;;19.40;56.20;;;;;;4124329;28;19990;-53
2022/06/04 05:35:05;;;;;;;;;;;19.40;55.60;;;;;;4122854;28;20019;-51
2022/06/04 05:37:07;;;;;;;;;;;19.40;55.60;;;;;;4125760;28;20165;-53
2022/06/04 05:39:10;;;;;;;;;;;19.40;55.40;;;;;;4125904;28;19928;-52
2022/06/04 05:41:13;;;;;;;;;;;19.40;55.30;;;;;;4123296;28;20594;-53
2022/06/04 05:43:14;;;;;;;;;;;19.30;55.20;;;;;;4134166;28;20478;-50
2022/06/04 05:45:16;;;;;;;;;;;19.30;55.10;;;;;;4128023;28;19924;-53
2022/06/04 05:47:18;;;;;;;;;;;19.30;55.00;;;;;;4124184;28;20396;-48
2022/06/04 05:49:20;;;;;;;;;;;19.30;55.10;;;;;;4133883;28;20663;-53
2022/06/04 05:51:24;;;;;;;;;;;19.30;55.00;;;;;;4128856;28;19939;-49
2022/06/04 05:53:26;;;;;;;;;;;19.20;55.00;;;;;;4126096;28;20410;-51
2022/06/04 05:55:30;;;;;;;;;;;19.20;55.00;;;;;;4133216;28;19961;-50
2022/06/04 05:57:32;;;;;;;;;;;19.20;55.00;;;;;;4131872;28;20481;-48
2022/06/04 05:59:34;;;;;;;;;;;19.20;55.10;;;;;;4123381;28;19924;-52
2022/06/04 06:01:38;;;;;;;;;;;19.20;55.20;;;;;;4128026;28;19932;-50
2022/06/04 06:03:39;;;;;;;;;;;19.10;55.20;;;;;;4123999;28;19928;-52
2022/06/04 06:05:42;;;;;;;;;;;19.10;55.20;;;;;;4130263;28;19928;-52
2022/06/04 06:07:44;;;;;;;;;;;19.10;55.30;;;;;;4126052;28;19924;-52
2022/06/04 06:09:45;;;;;;;;;;;19.10;55.40;;;;;;4136542;28;19951;-52
2022/06/04 06:11:48;;;;;;;;;;;19.10;55.40;;;;;;4126572;28;20473;-46
2022/06/04 06:13:50;;;;;;;;;;;19.00;55.30;;;;;;4111076;28;20009;-51
2022/06/04 06:15:52;;;;;;;;;;;19.00;56.00;;;;;;4129848;28;20435;-48
2022/06/04 06:17:53;;;;;;;;;;;19.00;56.40;;;;;;4128611;28;19930;-46
2022/06/04 06:19:55;;;;;;;;;;;19.00;56.60;;;;;;4125780;28;19936;-50
2022/06/04 06:21:56;;;;;;;;;;;19.00;56.70;;;;;;4128016;28;19925;-48
2022/06/04 06:23:59;;;;;;;;;;;19.00;56.70;;;;;;4134370;28;19937;-52
2022/06/04 06:26:07;;;;;;;;;;;19.00;56.90;;;;;;4127050;28;19924;-49
2022/06/04 06:28:09;;;;;;;;;;;19.00;57.40;;;;;;4126605;28;19924;-51
2022/06/04 06:30:11;;;;;;;;;;;19.00;57.40;;;;;;4135783;28;20542;-52
2022/06/04 06:32:12;;;;;;;;;;;19.00;57.60;;;;;;4131868;28;21151;-48
2022/06/04 06:34:14;;;;;;;;;;;19.00;57.60;;;;;;4121899;28;20023;-50
2022/06/04 06:36:16;;;;;;;;;;;19.00;57.70;;;;;;4123234;28;19929;-53
2022/06/04 06:38:18;;;;;;;;;;;19.00;57.90;;;;;;4134198;28;19961;-47
2022/06/04 06:40:19;;;;;;;;;;;19.00;58.00;;;;;;4125573;28;20035;-54
2022/06/04 06:42:21;;;;;;;;;;;19.00;58.00;;;;;;4127401;28;20634;-48
2022/06/04 06:44:23;;;;;;;;;;;19.00;58.20;;;;;;4131681;28;19939;-46
2022/06/04 06:46:26;;;;;;;;;;;19.00;58.40;;;;;;4112789;28;19967;-52
2022/06/04 06:48:28;;;;;;;;;;;18.90;58.40;;;;;;4102970;28;20236;-54
2022/06/04 06:50:29;;;;;;;;;;;18.90;58.60;;;;;;4110472;28;20371;-52
2022/06/04 06:52:31;;;;;;;;;;;18.90;58.90;;;;;;4116042;28;20574;-52
2022/06/04 06:54:34;;;;;;;;;;;18.90;59.70;;;;;;4114531;28;19928;-52
2022/06/04 06:56:38;;;;;;;;;;;18.90;59.10;;;;;;4111171;28;20055;-46
2022/06/04 06:58:40;;;;;;;;;;;18.90;59.10;;;;;;4116102;28;20317;-54
2022/06/04 07:00:42;;;;;;;;;;;18.90;59.10;;;;;;4118601;28;20281;-53
2022/06/04 07:02:43;;;;;;;;;;;19.00;59.30;;;;;;4129554;28;20037;-53
2022/06/04 07:04:45;;;;;;;;;;;18.90;58.60;;;;;;4125515;28;20096;-50
2022/06/04 07:06:48;;;;;;;;;;;18.90;58.40;;;;;;4131134;28;19929;-51
2022/06/04 07:08:50;;;;;;;;;;;18.90;58.00;;;;;;4133623;28;20463;-51
2022/06/04 07:10:51;;;;;;;;;;;18.80;57.70;;;;;;4140239;28;20232;-54
2022/06/04 07:12:53;;;;;;;;;;;18.80;57.40;;;;;;4126254;28;20890;-51
2022/06/04 07:14:55;;;;;;;;;;;18.80;57.20;;;;;;4100371;28;20403;-52
2022/06/04 07:16:58;;;;;;;;;;;18.70;57.40;;;;;;4111330;28;19988;-55
2022/06/04 07:19:00;;;;;;;;;;;18.80;57.70;;;;;;4107277;28;19929;-50
2022/06/04 07:21:04;;;;;;;;;;;18.80;58.00;;;;;;4108871;28;19950;-49
2022/06/04 07:23:05;;;;;;;;;;;18.80;58.90;;;;;;4116823;28;20399;-45
2022/06/04 07:25:07;;;;;;;;;;;18.80;58.60;;;;;;4111379;28;20366;-48
2022/06/04 07:27:09;;;;;;;;;;;18.80;58.70;;;;;;4096221;28;19929;-45
2022/06/04 07:29:11;;;;;;;;;;;18.80;58.90;;;;;;4103574;28;19928;-47
2022/06/04 07:31:14;;;;;;;;;;;18.80;59.00;;;;;;4111694;28;19936;-52
2022/06/04 07:33:16;;;;;;;;;;;18.80;59.10;;;;;;4112280;28;20878;-49
2022/06/04 07:35:18;;;;;;;;;;;18.80;59.20;;;;;;4105355;28;19983;-47
2022/06/04 07:37:20;;;;;;;;;;;18.80;59.40;;;;;;4106486;28;19955;-47
2022/06/04 07:39:22;;;;;;;;;;;18.80;59.60;;;;;;4102381;28;20934;-49
2022/06/04 07:41:25;;;;;;;;;;;18.80;59.70;;;;;;4099301;28;20411;-50
2022/06/04 07:43:27;;;;;;;;;;;18.80;59.70;;;;;;4108239;28;20042;-51
2022/06/04 07:45:28;;;;;;;;;;;18.80;59.80;;;;;;4111069;28;21056;-52
2022/06/04 07:47:30;;;;;;;;;;;18.80;59.80;;;;;;4110709;28;20467;-47
2022/06/04 07:49:32;;;;;;;;;;;18.80;59.90;;;;;;4112126;28;20011;-52
2022/06/04 07:51:34;;;;;;;;;;;18.80;59.90;;;;;;4118479;28;20598;-54
2022/06/04 07:53:35;;;;;;;;;;;18.80;59.90;;;;;;4108934;28;19924;-52
2022/06/04 07:55:40;;;;;;;;;;;18.70;59.90;;;;;;4121212;28;19992;-53
2022/06/04 07:57:42;;;;;;;;;;;18.80;60.00;;;;;;4097068;28;20032;-55
2022/06/04 07:59:44;;;;;;;;;;;18.80;60.10;;;;;;4108955;28;20075;-53
2022/06/04 08:01:45;;;;;;;;;;;18.80;60.00;;;;;;4109253;28;19928;-55
2022/06/04 08:03:48;;;;;;;;;;;18.70;60.00;;;;;;4114158;28;20309;-56
2022/06/04 08:05:53;;;;;;;;;;;18.70;60.20;;;;;;4099740;28;21534;-53
2022/06/04 08:07:54;;;;;;;;;;;18.70;60.10;;;;;;4110462;28;19961;-48
2022/06/04 08:09:56;;;;;;;;;;;18.70;60.10;;;;;;4110820;28;19932;-52
2022/06/04 08:11:58;;;;;;;;;;;18.70;60.40;;;;;;4114689;28;19932;-52
2022/06/04 08:14:16;;;;;;;;;;;18.80;60.50;;;;;;4111295;28;19928;-54
2022/06/04 08:16:18;;;;;;;;;;;18.70;60.30;;;;;;4110454;28;20269;-54
2022/06/04 08:18:19;;;;;;;;;;;18.70;60.40;;;;;;4106941;28;19952;-55
2022/06/04 08:20:21;;;;;;;;;;;18.70;61.00;;;;;;4105867;28;20359;-55
2022/06/04 08:22:23;;;;;;;;;;;18.70;60.40;;;;;;4119155;28;21087;-50
2022/06/04 08:24:25;;;;;;;;;;;18.70;60.60;;;;;;4106252;28;20410;-50
2022/06/04 08:26:27;;;;;;;;;;;18.70;60.70;;;;;;4097453;28;20418;-55
2022/06/04 08:28:28;;;;;;;;;;;18.70;60.60;;;;;;4116333;28;19928;-51
2022/06/04 08:30:30;;;;;;;;;;;18.70;61.40;;;;;;4108106;28;19928;-53
2022/06/04 08:32:32;;;;;;;;;;;18.60;60.70;;;;;;4112795;28;19925;-52
2022/06/04 08:34:34;;;;;;;;;;;18.60;60.70;;;;;;4118348;28;19924;-52
2022/06/04 08:36:35;;;;;;;;;;;18.60;60.80;;;;;;4111558;28;19929;-54
2022/06/04 08:38:37;;;;;;;;;;;18.60;60.70;;;;;;4109988;28;19932;-48
2022/06/04 08:40:45;;;;;;;;;;;18.60;60.70;;;;;;4104139;28;19929;-57
2022/06/04 08:42:51;;;;;;;;;;;18.60;60.80;;;;;;4111444;28;20417;-54
2022/06/04 08:44:57;;;;;;;;;;;18.60;60.90;;;;;;4104426;28;20569;-52
2022/06/04 08:47:02;;;;;;;;;;;18.60;61.00;;;;;;4106144;28;19958;-53
2022/06/04 08:49:06;;;;;;;;;;;18.60;61.10;;;;;;4110492;28;19936;-50
2022/06/04 08:51:15;;;;;;;;;;;18.60;61.00;;;;;;4116872;28;20049;-49
2022/06/04 08:53:23;;;;;;;;;;;18.60;61.00;;;;;;4113734;28;20437;-51
2022/06/04 08:58:03;;;;;;;;;;;18.60;60.90;;;;;;4104520;28;20520;-50
2022/06/04 09:00:11;;;;;;;;;;;18.60;60.90;;;;;;4109744;28;19924;-52
2022/06/04 09:02:17;;;;;;;;;;;18.60;61.00;;;;;;4113598;28;19939;-52
2022/06/04 09:04:18;;;;;;;;;;;18.60;61.20;;;;;;4116099;28;20798;-52
2022/06/04 09:06:22;;;;;;;;;;;18.60;61.20;;;;;;4108407;28;20665;-50
2022/06/04 09:08:43;;;;;;;;;;;18.50;61.10;;;;;;4109320;28;19925;-46
2022/06/04 09:10:50;;;;;;;;;;;18.50;61.20;;;;;;4108472;28;20546;-48
2022/06/04 09:12:51;;;;;;;;;;;18.50;61.10;;;;;;4109792;28;20505;-47
2022/06/04 09:15:00;;;;;;;;;;;18.50;61.20;;;;;;4114158;28;20522;-51
2022/06/04 09:17:01;;;;;;;;;;;18.50;61.20;;;;;;4115975;28;20508;-47
2022/06/04 09:19:05;;;;;;;;;;;18.50;61.20;;;;;;4090884;28;20155;-50
2022/06/04 09:21:09;;;;;;;;;;;18.50;61.30;;;;;;4105651;28;19936;-51
2022/06/04 09:23:14;;;;;;;;;;;18.50;61.20;;;;;;4106542;28;19971;-45
2022/06/04 09:25:16;;;;;;;;;;;18.50;61.30;;;;;;4116529;28;20375;-51
2022/06/04 09:27:21;;;;;;;;;;;18.40;61.30;;;;;;4096057;28;20566;-51
2022/06/04 09:29:45;;;;;;;;;;;18.40;61.40;;;;;;4111177;28;19935;-54
2022/06/04 09:32:02;;;;;;;;;;;18.40;61.30;;;;;;4090517;28;20195;-50
2022/06/04 09:34:07;;;;;;;;;;;18.40;61.30;;;;;;4115678;28;19974;-52
2022/06/04 09:36:12;;;;;;;;;;;18.40;61.40;;;;;;4112899;28;20467;-48
2022/06/04 09:38:27;;;;;;;;;;;18.40;61.40;;;;;;4107769;28;20890;-50
2022/06/04 09:40:30;;;;;;;;;;;18.40;61.40;;;;;;4105804;28;21289;-46
2022/06/04 09:42:32;;;;;;;;;;;18.40;61.40;;;;;;4110525;28;19928;-50
2022/06/04 09:44:37;;;;;;;;;;;18.40;61.50;;;;;;4114038;28;20600;-47
2022/06/04 09:46:43;;;;;;;;;;;18.40;61.50;;;;;;4113957;28;20108;-45
2022/06/04 09:48:51;;;;;;;;;;;18.40;61.40;;;;;;4110971;28;21565;-52
2022/06/04 09:50:55;;;;;;;;;;;18.40;61.40;;;;;;4111342;28;20052;-48
2022/06/04 09:53:14;;;;;;;;;;;18.40;61.40;;;;;;4110051;28;20662;-48
2022/06/04 09:55:22;;;;;;;;;;;18.40;61.50;;;;;;4109649;28;19937;-52
2022/06/04 09:57:27;;;;;;;;;;;18.30;61.40;;;;;;4088466;28;20370;-49
2022/06/04 09:59:32;;;;;;;;;;;18.30;61.50;;;;;;4115548;28;19935;-50
2022/06/04 10:01:33;;;;;;;;;;;18.30;61.50;;;;;;4117590;28;19924;-47
2022/06/04 10:03:38;;;;;;;;;;;18.30;61.50;;;;;;4115556;28;20016;-50
2022/06/04 10:05:47;;;;;;;;;;;18.30;61.60;;;;;;4113046;28;20508;-52
2022/06/04 10:07:49;;;;;;;;;;;18.30;61.60;;;;;;4108038;28;19929;-51
2022/06/04 10:09:56;;;;;;;;;;;18.30;61.50;;;;;;4114406;28;19935;-54
2022/06/04 10:11:59;;;;;;;;;;;18.30;61.50;;;;;;4098312;28;20642;-47
2022/06/04 10:14:01;;;;;;;;;;;18.30;61.40;;;;;;4122563;28;20481;-54
2022/06/04 10:16:14;;;;;;;;;;;18.30;61.70;;;;;;4120581;28;20123;-47
2022/06/04 10:18:16;;;;;;;;;;;18.30;61.70;;;;;;4119472;28;20777;-49
2022/06/04 10:20:23;;;;;;;;;;;18.30;61.60;;;;;;4127676;28;20352;-52
2022/06/04 10:22:25;;;;;;;;;;;18.30;61.60;;;;;;4126852;28;20971;-49
2022/06/04 10:24:28;;;;;;;;;;;18.20;61.50;;;;;;4120989;28;19937;-51
2022/06/04 10:26:41;;;;;;;;;;;18.20;61.50;;;;;;4124067;28;20438;-48
2022/06/04 10:29:01;;;;;;;;;;;18.20;61.50;;;;;;4123022;28;20622;-54
2022/06/04 10:31:02;;;;;;;;;;;18.20;61.60;;;;;;4114862;28;19924;-48
2022/06/04 10:33:04;;;;;;;;;;;18.20;61.50;;;;;;4122083;28;19955;-50
2022/06/04 10:35:24;;;;;;;;;;;18.20;61.70;;;;;;4110462;28;20235;-49
2022/06/04 10:37:29;;;;;;;;;;;18.20;61.10;;;;;;4128135;28;19936;-46
2022/06/04 10:39:39;;;;;;;;;;;18.20;61.00;;;;;;4124301;28;21031;-50
2022/06/04 10:41:51;;;;;;;;;;;18.20;60.90;;;;;;4126257;28;20844;-48
2022/06/04 10:43:55;;;;;;;;;;;18.20;61.00;;;;;;4124103;28;20946;-55
2022/06/04 10:46:12;;;;;;;;;;;18.20;61.10;;;;;;4118749;28;20479;-48
2022/06/04 10:48:26;;;;;;;;;;;18.20;61.00;;;;;;4106792;28;21433;-51
2022/06/04 10:50:30;;;;;;;;;;;18.10;60.80;;;;;;4122074;28;20599;-50
2022/06/04 10:52:35;;;;;;;;;;;18.10;60.80;;;;;;4125513;28;20209;-45
2022/06/04 10:54:39;;;;;;;;;;;18.10;60.80;;;;;;4120705;28;19998;-49
2022/06/04 10:56:44;;;;;;;;;;;18.10;60.80;;;;;;4125916;28;20272;-46
2022/06/04 10:58:54;;;;;;;;;;;18.10;60.70;;;;;;4131135;28;20268;-55
2022/06/04 11:00:56;;;;;;;;;;;18.10;60.70;;;;;;4128451;28;20100;-47
2022/06/04 11:03:05;;;;;;;;;;;18.10;60.80;;;;;;4119863;28;20408;-55
2022/06/04 11:05:17;;;;;;;;;;;18.10;60.90;;;;;;4122267;28;19928;-55
2022/06/04 11:07:37;;;;;;;;;;;18.10;61.00;;;;;;4124435;28;19971;-54
2022/06/04 11:09:41;;;;;;;;;;;18.10;61.10;;;;;;4121082;28;19965;-54
2022/06/04 11:12:02;;;;;;;;;;;18.10;61.00;;;;;;4118739;28;20512;-53
2022/06/04 11:14:09;;;;;;;;;;;18.10;61.10;;;;;;4120226;28;19928;-48
2022/06/04 11:16:15;;;;;;;;;;;18.00;61.00;;;;;;4118333;28;19929;-49
2022/06/04 11:18:20;;;;;;;;;;;18.00;60.90;;;;;;4119873;28;20023;-56
2022/06/04 11:20:32;;;;;;;;;;;18.00;61.00;;;;;;4131183;28;20402;-54
2022/06/04 11:22:38;;;;;;;;;;;18.00;60.80;;;;;;4130113;28;19959;-54
2022/06/04 11:24:44;;;;;;;;;;;18.00;60.80;;;;;;4122368;28;20038;-53
2022/06/04 11:27:11;;;;;;;;;;;18.00;60.80;;;;;;4106481;28;20022;-51
2022/06/04 11:29:14;;;;;;;;;;;18.00;60.70;;;;;;4125121;28;20034;-53
2022/06/04 11:31:16;;;;;;;;;;;17.90;60.70;;;;;;4127489;28;20582;-55
2022/06/04 11:33:46;;;;;;;;;;;18.00;60.80;;;;;;4121409;28;20004;-52
2022/06/04 11:36:09;;;;;;;;;;;17.90;60.80;;;;;;4100161;28;19951;-50
2022/06/04 11:38:11;;;;;;;;;;;17.90;60.80;;;;;;4119558;28;20528;-51
2022/06/04 11:40:22;;;;;;;;;;;17.90;60.90;;;;;;4128540;28;20945;-54
2022/06/04 11:42:44;;;;;;;;;;;17.90;60.90;;;;;;4112758;28;20375;-48
2022/06/04 11:44:45;;;;;;;;;;;17.90;61.00;;;;;;4113893;28;19936;-49
2022/06/04 11:47:03;;;;;;;;;;;17.90;61.10;;;;;;4131053;28;19928;-49
2022/06/04 11:49:11;;;;;;;;;;;17.90;60.90;;;;;;4126809;28;19955;-51
2022/06/04 11:51:12;;;;;;;;;;;17.90;61.00;;;;;;4131107;28;20554;-51
2022/06/04 11:53:14;;;;;;;;;;;17.90;61.10;;;;;;4126873;28;21388;-54
2022/06/04 11:55:15;;;;;;;;;;;17.90;61.00;;;;;;4120008;28;20031;-49
2022/06/04 11:57:26;;;;;;;;;;;17.90;61.00;;;;;;4128110;28;20461;-51
2022/06/04 11:59:39;;;;;;;;;;;17.90;61.00;;;;;;4115775;28;20342;-50
2022/06/04 12:01:43;;;;;;;;;;;17.80;60.90;;;;;;4124824;28;19975;-52
2022/06/04 12:03:48;;;;;;;;;;;17.80;60.90;;;;;;4130833;28;20726;-52
2022/06/04 12:05:53;;;;;;;;;;;17.80;61.10;;;;;;4122696;28;19928;-51
2022/06/04 12:07:55;;;;;;;;;;;17.80;60.90;;;;;;4127003;28;20361;-48
2022/06/04 12:10:02;;;;;;;;;;;17.80;61.00;;;;;;4136205;28;20015;-52
2022/06/04 12:12:12;;;;;;;;;;;17.80;61.00;;;;;;4125138;28;20006;-50
2022/06/04 12:14:26;;;;;;;;;;;17.80;61.00;;;;;;4109146;28;20296;-51